Weather observations for the past three days for
Dallas / Addison Airport
Metric (Imperial)
Date Time (cdt) Wind (kph) Vis. (km) Weather Sky Cond. Temperature (ºC) Relative Humidity Wind Chill (°C) Heat Index (°C) Pressure Precipitation (cm)
Air Dwpt 6 hour altimeter (cm) sea level (mb) 1 hr 3 hr 6 hr
Max. Min.
07 14:47 NE 13 16.09 Clear SKC 23 7 36% 76.28 0.0
07 13:47 N 20 G 31 16.09 Clear SKC 22 7 38% 76.3 0.0
07 12:47 NE 20 G 26 16.09 Clear SKC 21 7 40% 76.38 0.0
07 11:50 N 13 16.09 Clear SKC 20 6 40% 76.48 0.0
07 10:47 NE 6 16.09 Clear SKC 18 7 49% 76.5 0.0
07 09:49 NE 7 16.09 Clear SKC 17 8 56% 76.53 0.0
07 08:47 N 7 16.09 Clear SKC 15 11 77% 76.56 0.0
07 07:51 Calm 20.92 Mostly Cloudy BKN250 14 9 72% 76.56 0.0
07 06:47 Calm 20.92 Mostly Cloudy BKN250 12 9 82% 76.5 0.0
07 05:47 Calm 20.92 Mostly Cloudy BKN250 12 9 82% 76.45 0.0
07 05:35 N 6 16.09 Fair CLR 12 11 94% 76.4 0.0
07 05:15 N 6 16.09 Fair CLR 12 11 94% 76.4 0.0
07 04:55 NE 6 16.09 Fair CLR 12 11 94% 76.38 0.0
07 04:35 NE 6 16.09 Fair CLR 12 11 94% 76.35 0.0
07 04:15 NE 7 16.09 Fair CLR 13 11 88% 76.35 0.0
07 03:55 NE 6 16.09 Fair CLR 13 11 88% 76.35 0.0
07 03:35 NE 9 16.09 Fair CLR 13 11 88% 76.33 0.0
07 03:15 NE 7 16.09 Fair CLR 13 11 88% 76.35 0.0
07 02:55 NE 11 16.09 Fair CLR 13 11 88% 76.33 0.0
07 02:35 NE 13 16.09 Fair CLR 13 11 88% 76.3 0.0
07 02:15 NE 13 16.09 Fair CLR 14 12 88% 76.3 0.0
07 01:55 NE 9 16.09 Fair CLR 14 12 88% 76.33 0.0
07 01:35 NE 13 16.09 Fair CLR 14 12 88% 76.3 0.0
07 01:15 E 11 16.09 Fair CLR 14 12 88% 76.3 0.0
07 00:55 E 11 16.09 Fair CLR 14 12 16.8 14.3 88% 76.28 0.0
07 00:35 Vrbl 11 16.09 A Few Clouds FEW030 15 12 82% 76.28 0.0
07 00:15 E 7 16.09 Mostly Cloudy BKN030 15 12 82% 76.28 0.0
06 23:35 E 13 16.09 Overcast OVC026 15 11 77% 76.3 0.0
06 23:15 NE 17 16.09 Overcast OVC026 15 11 77% 76.33 0.0
06 22:55 NE 17 16.09 Overcast OVC024 16 11 72% 76.33 0.0
06 22:35 N 20 G 30 16.09 Overcast OVC022 16 11 72% 76.33 0.0
06 22:15 NE 13 16.09 Overcast OVC022 16 12 77% 76.3 0.0
06 21:55 NE 17 16.09 Overcast OVC024 16 9 63% 76.3 0.0
06 21:35 NE 9 16.09 Overcast OVC026 16 13 83% 76.25 0.0
06 20:53 NE 13 16.09 Overcast OVC026 16 10 68% 76.23 0.0
06 18:47 NE 13 16.09 Overcast OVC024 16 11 72% 76.1 0.0
06 17:49 NE 11 16.09 Overcast BKN018 BKN060 OVC085 16 14 88% 76.07 0.0
06 16:49 N 11 16.09 Mostly Cloudy BKN022 17 9 60% 76.05 0.0
06 15:51 N 9 16.09 Mostly Cloudy SCT022 SCT043 BKN060 17 9 60% 76.07 0.0
06 14:47 NW 11 16.09 Overcast BKN020 BKN035 OVC043 16 8 59% 76.12 0.0
06 13:47 NE 9 16.09 Overcast BKN014 OVC020 14 8 67% 76.15 0.0
06 12:47 N 20 16.09 Mostly Cloudy BKN014 BKN020 13 9 77% 76.1 0.0
06 11:47 N 19 16.09 Thunderstorm Rain Fog/Mist OVC014 13 10 82% 76.05 0.0
06 09:47 N 13 16.09 Overcast OVC014 13 8 72% 76.15 0.0
06 08:47 N 19 16.09 Overcast OVC014 12 7 72% 76.07 0.0
06 07:47 N 22 G 30 16.09 Overcast OVC016 12 7 72% 76.02 0.0
06 06:47 N 20 G 30 16.09 Overcast OVC019 13 7 67% 75.97 0.0
06 05:53 N 19 G 26 16.09 Overcast OVC020 14 7 63% 75.92 0.0
06 05:35 N 22 G 31 16.09 Overcast OVC018 14 9 72% 75.87 0.0
06 05:15 N 20 16.09 Overcast OVC018 14 9 72% 75.84 0.0
06 04:55 N 20 16.09 Overcast OVC020 14 9 72% 75.82 0.0
06 04:35 N 17 16.09 Overcast OVC020 15 10 72% 75.79 0.0
06 04:15 N 19 16.09 Overcast OVC022 15 10 72% 75.79 0.0
06 03:55 N 17 16.09 Overcast OVC022 15 10 72% 75.77 0.0
06 03:35 N 13 16.09 Overcast OVC022 15 10 72% 75.77 0.0
06 03:15 N 11 16.09 Overcast OVC022 15 11 77% 75.77 0.0
06 02:55 NE 13 16.09 Overcast OVC022 15 11 77% 75.74 0.0
06 02:35 N 15 16.09 Overcast OVC022 15 11 77% 75.74 0.0
06 02:15 NE 17 16.09 Overcast OVC024 15 11 77% 75.77 0.0
06 01:55 NE 15 G 26 16.09 Overcast OVC026 16 11 72% 75.74 0.0
06 01:35 N 13 G 26 16.09 Overcast OVC026 16 11 72% 75.74 0.0
06 01:15 N 20 16.09 Overcast OVC026 16 12 77% 75.74 0.0
06 00:55 N 22 16.09 Overcast OVC026 17 12 26.5 16.5 73% 75.74 0.0
06 00:35 N 19 16.09 Overcast OVC026 17 13 77% 75.74 0.0
06 00:15 N 17 16.09 Overcast OVC028 17 13 77% 75.74 0.0
05 23:55 N 15 G 31 16.09 Overcast OVC028 18 14 78% 75.72 0.0
05 23:35 N 22 16.09 Overcast OVC028 18 14 78% 75.74 0.0
05 23:15 N 22 16.09 Overcast OVC030 18 14 78% 75.72 0.0
05 22:55 N 22 16.09 Overcast OVC028 19 14 73% 75.67 0.0
05 22:35 N 24 G 31 16.09 Overcast OVC030 19 15 78% 75.67 0.0
05 22:15 N 24 16.09 Overcast OVC033 21 16 73% 75.64 0.0
05 21:55 N 19 16.09 Overcast BKN033 OVC040 21 16 73% 75.62 0.0
05 21:47 N 17 16.09 Overcast BKN033 OVC040 21 13 60% 75.62 0.0
05 21:35 N 24 16.09 Mostly Cloudy BKN035 BKN042 22 16 69% 75.57 0.0
05 20:47 N 17 16.09 A Few Clouds FEW060 23 14 57% 75.51 0.0
05 19:47 N 17 16.09 Partly Cloudy SCT048 24 14 54% 25 75.44 0.0
05 18:55 N 24 16.09 Mostly Cloudy SCT050 BKN070 26 15 51% 27 75.36 0.0
05 17:47 N 24 G 39 16.09 Partly Cloudy SCT060 32 18 43% 33 75.31 0.0
05 16:47 SW 13 G 26 20.92 Partly Cloudy SCT035 32 17 41% 32 75.29 0.0
05 15:47 SW 15 G 24 20.92 Partly Cloudy SCT035 32 18 43% 33 75.34 0.0
05 14:47 S 22 G 31 20.92 Overcast FEW025 BKN200 OVC250 30 18 49% 31 75.36 0.0
05 13:47 S 20 G 33 20.92 Overcast FEW025 BKN200 OVC250 29 18 51% 30 75.39 0.0
05 12:47 SW 19 G 37 20.92 Partly Cloudy SCT021 28 18 55% 29 75.39 0.0
05 11:47 S 17 G 30 20.92 Partly Cloudy SCT021 26 18 61% 27 75.41 0.0
05 10:53 S 22 G 37 20.92 Overcast SCT021 BKN110 OVC250 25 17 61% 26 75.39 0.0
05 09:51 S 20 G 39 20.92 Overcast SCT017 BKN022 OVC250 24 17 65% 25 75.41 0.0
05 08:51 S 17 G 33 20.92 Overcast BKN017 BKN022 OVC250 23 17 69% 75.36 0.0
05 07:47 S 28 G 43 20.92 Overcast BKN015 BKN023 OVC250 22 17 73% 75.36 0.0
05 06:47 S 24 G 41 20.92 Overcast BKN019 OVC250 22 17 73% 75.31 0.0
05 05:53 S 20 G 37 20.92 Mostly Cloudy BKN019 22 17 73% 75.29 0.0
05 05:35 S 19 G 33 16.09 Overcast BKN019 OVC024 23 20 83% 75.29 0.0
05 04:55 S 19 G 35 16.09 Overcast OVC017 23 20 83% 75.31 0.0
05 04:35 S 20 G 33 16.09 Overcast OVC017 23 20 83% 75.31 0.0
05 04:15 S 22 G 41 16.09 Overcast OVC017 23 20 83% 75.34 0.0
05 03:55 S 15 G 35 16.09 Overcast OVC019 23 20 83% 75.34 0.0
05 03:35 S 15 G 35 16.09 Mostly Cloudy BKN021 BKN026 22 19 83% 75.34 0.0
05 03:15 S 15 G 31 16.09 Partly Cloudy SCT023 23 19 78% 75.34 0.0
05 02:55 S 11 16.09 A Few Clouds FEW023 23 19 78% 75.34 0.0
05 02:35 S 19 G 31 16.09 Partly Cloudy SCT023 23 19 78% 75.39 0.0
05 02:15 S 17 G 26 16.09 A Few Clouds FEW025 23 19 78% 75.41 0.0
05 01:55 S 20 G 33 16.09 Fair CLR 23 19 78% 75.44 0.0
05 01:35 S 15 G 28 16.09 Fair CLR 23 19 78% 75.44 0.0
05 01:15 S 15 G 26 16.09 Fair CLR 24 18 69% 25 75.44 0.0
05 00:55 S 15 G 31 16.09 Fair CLR 24 18 26.7 23.6 69% 25 75.44 0.0
05 00:35 S 15 G 30 16.09 Fair CLR 24 18 69% 25 75.44 0.0
05 00:15 S 26 G 33 16.09 Fair CLR 24 18 69% 25 75.46 0.0
04 23:55 S 20 G 41 16.09 Fair CLR 24 18 69% 25 75.46 0.0
04 23:35 S 15 G 35 16.09 Fair CLR 24 18 69% 25 75.46 0.0
04 23:15 S 26 G 37 16.09 Fair CLR 24 18 69% 25 75.46 0.0
04 22:55 S 20 G 33 16.09 Fair CLR 24 18 69% 25 75.49 0.0
04 22:35 S 13 G 31 16.09 Fair CLR 25 18 65% 26 75.46 0.0
04 22:15 S 20 G 37 16.09 Fair CLR 25 18 65% 26 75.46 0.0
04 21:55 S 17 G 35 16.09 Fair CLR 25 17 61% 26 75.49 0.0
04 21:47 S 20 G 35 20.92 Clear SKC 25 15 54% 26 75.49 0.0
04 21:35 S 19 G 33 16.09 Fair CLR 25 17 61% 26 75.49 0.0
04 20:47 S 20 G 39 20.92 Mostly Cloudy FEW040 BKN250 25 15 54% 26 75.46 0.0
04 19:47 S 30 G 41 20.92 Mostly Cloudy FEW045 BKN250 25 15 54% 26 75.46 0.0
04 18:47 S 24 G 39 20.92 Partly Cloudy SCT045 26 15 51% 27 75.49 0.0
04 17:47 S 26 G 48 20.92 Mostly Cloudy SCT045 BKN250 27 15 48% 27 75.54 0.0
04 16:47 S 24 G 43 16.09 Partly Cloudy SCT045 27 15 48% 27 75.57 0.0
04 15:47 S 17 16.09 A Few Clouds FEW045 27 14 45% 27 75.64 0.0
Date Time (cdt) Wind (kph) Vis. (km) Weather Sky Cond. Air Dwpt Max. Min. Relative Humidity Wind Chill (°C) Heat Index (°C) altimeter (cm) sea level (mb) 1 hr 3 hr 6 hr
6 hour
Temperature (ºC) Pressure Precipitation (cm)